Etusivu
METAR-TAF:

METAR-TAF

Lentoasemat :

Uumajan lentoasema

Umeå, Ruotsi

Leveyspiiri: 63-48N, Pituuspiiri: 020-17E, korkeus merenpinnasta: 7 m

Tämänhetkinen sää

Tämä raportti tehtiin 27 minuuttia sitten, kello 06.50 UTC
Tuuli 14 kn lännestä/luoteesta
Lämpötila 7°C
Kosteus 57%
Ilmanpaine 999 hPa
Näkyvyys 10 km tai enemmän
ei pilviä alle 1500 m:ssä eikä cumulonimbus-pilviä

METAR: ESNU 240650Z 30014KT CAVOK 07/M01 Q0999

Aika: 09:17 (07:17 UTC)

Sääennuste

Tämä raportti tehtiin 1 tunti ja 47 minuuttia sitten, kello 05.30 UTC
Ennuste voimassa 24. päivästä klo 06 UTC - 24. päivään klo 15 UTC
Tuuli 12 kn lännestä/luoteesta
Näkyvyys 10 km tai enemmän
ei pilviä alle 1500 m:ssä eikä cumulonimbus-pilviä
Tulossa
24. päivästä klo 06 UTC - 24. päivään klo 08 UTC
Tuuli 18 kn luoteesta puuskistuen 30 kn:hen

TAF: ESNU 240530Z 2406/2415 29012KT CAVOK BECMG 2406/2408 31018G30KT

Säähavainnot ja -ennusteet yli 4000 lentoasemalta (METAR- ja TAF-raportit).

Käytössä olevat sääasemat on merkitty karttaan keltaisilla ja punaisilla pisteillä.

Aseta hiiri pisteen päälle nähdäksesi sääaseman nimen.

Klikkaa sitten nähdäksesi säähavainnot ja -ennusteet.

Kartan vaihtaminen: klikkaa mustalla rastilla varustettuja vihreitä pisteitä, niin voit zoomata sisään; viivalla varustettua vihreää pistettä, niin voit zoomata ulos tai vihreitä nuolia, niin pääset viereisille kartoille.


METAR-TAF: